Time;durP1;ratioP1;P1;durP2;ratioP2;P2;SDS_P1;SDS_P2;PMS_P1;PMS_P2;Temp;Humidity;BMP_temperature;BMP_pressure;BME280_temperature;BME280_humidity;BME280_pressure;Samples;Min_cycle;Max_cycle;Signal;HPM_P1;HPM_P2
2023/07/11 00:01:02;;;;;;;2.42;1.50;;;22.50;96.70;;;;;;5016067;28;20179;-61
2023/07/11 00:03:30;;;;;;;4.68;1.60;;;22.50;96.90;;;;;;5012580;28;20183;-63
2023/07/11 00:06:07;;;;;;;1.88;1.42;;;22.40;97.40;;;;;;5017922;28;20448;-63
2023/07/11 00:08:36;;;;;;;1.98;1.40;;;22.40;98.00;;;;;;5018464;28;20174;-62
2023/07/11 00:11:03;;;;;;;4.53;1.80;;;22.40;97.50;;;;;;5023144;28;20178;-64
2023/07/11 00:13:29;;;;;;;2.88;1.80;;;22.40;97.70;;;;;;5009830;28;20273;-66
2023/07/11 00:16:02;;;;;;;2.53;1.58;;;22.40;97.90;;;;;;5019118;28;20241;-63
2023/07/11 00:18:35;;;;;;;1.98;1.52;;;22.30;98.50;;;;;;5031049;28;20187;-64
2023/07/11 00:21:04;;;;;;;2.72;1.48;;;22.30;98.40;;;;;;5013029;28;20190;-63
2023/07/11 00:23:30;;;;;;;3.15;1.42;;;22.30;98.60;;;;;;5018483;28;20174;-64
2023/07/11 00:25:58;;;;;;;3.42;1.50;;;22.30;98.40;;;;;;5009733;28;20182;-65
2023/07/11 00:28:29;;;;;;;2.05;1.63;;;22.30;98.90;;;;;;5009293;28;20305;-65
2023/07/11 00:30:57;;;;;;;2.83;1.65;;;22.30;99.00;;;;;;5025481;28;20178;-64
2023/07/11 00:33:25;;;;;;;2.22;1.35;;;22.20;98.80;;;;;;5018401;28;20216;-63
2023/07/11 00:35:52;;;;;;;2.35;1.90;;;22.20;98.90;;;;;;5033539;28;20166;-64
2023/07/11 00:38:18;;;;;;;2.92;1.80;;;22.20;99.10;;;;;;5018212;28;20185;-64
2023/07/11 00:40:47;;;;;;;3.50;1.60;;;22.20;99.20;;;;;;5017630;28;20212;-64
2023/07/11 00:43:18;;;;;;;2.53;1.80;;;22.10;99.50;;;;;;5026604;28;20232;-64
2023/07/11 00:46:04;;;;;;;1.98;1.70;;;22.10;99.90;;;;;;5034659;28;20169;-63
2023/07/11 00:48:37;;;;;;;2.60;1.50;;;22.10;99.90;;;;;;5015520;28;20305;-64
2023/07/11 00:51:14;;;;;;;1.77;1.38;;;22.10;99.90;;;;;;5017981;28;20177;-65
2023/07/11 00:53:42;;;;;;;2.58;1.50;;;22.00;99.80;;;;;;5017195;28;20213;-64
2023/07/11 00:56:11;;;;;;;2.20;1.48;;;22.00;99.90;;;;;;5017739;28;20210;-63
2023/07/11 00:58:43;;;;;;;2.75;1.40;;;22.00;99.90;;;;;;5017904;28;20196;-64
2023/07/11 01:01:12;;;;;;;3.00;1.63;;;22.00;99.90;;;;;;5017058;28;20237;-64
2023/07/11 01:03:41;;;;;;;2.15;1.55;;;21.90;99.90;;;;;;5034331;28;20184;-64
2023/07/11 01:06:16;;;;;;;2.10;1.60;;;21.90;99.90;;;;;;5017493;28;20269;-64
2023/07/11 01:08:49;;;;;;;3.08;1.42;;;21.90;99.90;;;;;;5018006;28;20178;-64
2023/07/11 01:11:15;;;;;;;2.13;1.50;;;21.80;99.90;;;;;;5013930;28;20206;-64
2023/07/11 01:13:44;;;;;;;2.00;1.55;;;21.80;99.90;;;;;;5015358;28;20277;-64
2023/07/11 01:16:10;;;;;;;4.95;1.52;;;21.80;99.90;;;;;;5009649;28;20550;-63
2023/07/11 01:18:36;;;;;;;1.60;1.45;;;21.80;99.90;;;;;;5017484;28;20192;-64
2023/07/11 01:21:05;;;;;;;1.40;1.30;;;21.70;99.90;;;;;;5020379;28;20209;-63
2023/07/11 01:23:32;;;;;;;2.30;1.70;;;21.70;99.90;;;;;;5017385;28;20228;-63
2023/07/11 01:26:00;;;;;;;3.38;1.75;;;21.70;99.90;;;;;;5015293;28;20202;-63
2023/07/11 01:28:28;;;;;;;2.20;1.55;;;21.70;99.90;;;;;;5020897;28;20175;-64
2023/07/11 01:30:54;;;;;;;2.80;1.70;;;21.60;99.90;;;;;;5016272;28;20179;-65
2023/07/11 01:33:24;;;;;;;2.50;1.40;;;21.60;99.90;;;;;;5017356;28;20255;-64
2023/07/11 01:35:54;;;;;;;2.40;1.63;;;21.60;99.90;;;;;;5014365;28;20170;-64
2023/07/11 01:38:24;;;;;;;2.25;1.50;;;21.50;99.90;;;;;;5015620;28;20220;-64
2023/07/11 01:40:50;;;;;;;5.50;2.10;;;21.50;99.90;;;;;;5017407;28;20189;-63
2023/07/11 01:43:18;;;;;;;1.95;1.40;;;21.50;99.90;;;;;;5016552;28;20207;-64
2023/07/11 01:45:44;;;;;;;2.92;1.70;;;21.40;99.90;;;;;;5024008;28;20188;-64
2023/07/11 01:48:12;;;;;;;2.85;1.63;;;21.40;99.90;;;;;;5016846;28;20288;-63
2023/07/11 01:50:37;;;;;;;4.40;1.65;;;21.40;99.90;;;;;;5017000;28;20189;-63
2023/07/11 01:53:03;;;;;;;1.90;1.40;;;21.40;99.90;;;;;;5015928;28;20205;-63
2023/07/11 01:55:29;;;;;;;2.95;1.63;;;21.30;99.90;;;;;;5014021;28;20202;-63
2023/07/11 01:57:57;;;;;;;2.83;1.80;;;21.30;99.90;;;;;;5015903;28;20178;-64
2023/07/11 02:00:22;;;;;;;2.50;1.80;;;21.30;99.90;;;;;;5016556;28;20193;-64
2023/07/11 02:02:53;;;;;;;2.50;1.52;;;21.20;99.90;;;;;;5017139;28;20174;-65
2023/07/11 02:05:23;;;;;;;3.05;1.73;;;21.20;99.90;;;;;;5010111;28;20178;-64
2023/07/11 02:07:49;;;;;;;3.15;1.40;;;21.20;99.90;;;;;;5007371;28;20202;-64
2023/07/11 02:10:15;;;;;;;2.38;1.63;;;21.20;99.90;;;;;;4997354;28;20182;-64
2023/07/11 02:12:42;;;;;;;2.15;1.30;;;21.10;99.90;;;;;;5013774;28;20182;-64
2023/07/11 02:15:08;;;;;;;2.63;1.50;;;21.10;99.90;;;;;;5021107;28;20198;-64
2023/07/11 02:17:35;;;;;;;2.10;1.58;;;21.10;99.90;;;;;;5033127;28;20239;-64
2023/07/11 02:20:03;;;;;;;2.10;1.40;;;21.10;99.90;;;;;;5016648;28;20200;-64
2023/07/11 02:22:31;;;;;;;3.92;1.73;;;21.10;99.90;;;;;;5016069;28;20228;-64
2023/07/11 02:24:59;;;;;;;2.28;1.67;;;21.10;99.90;;;;;;5016463;28;20170;-63
2023/07/11 02:27:24;;;;;;;2.03;1.55;;;21.10;99.90;;;;;;5013556;28;20197;-64
2023/07/11 02:29:50;;;;;;;2.25;1.40;;;21.10;99.90;;;;;;5024461;28;20170;-64
2023/07/11 02:32:15;;;;;;;1.83;1.27;;;21.10;99.90;;;;;;5016285;28;20177;-64
2023/07/11 02:34:41;;;;;;;2.08;1.65;;;21.00;99.90;;;;;;5023900;28;20388;-61
2023/07/11 02:37:07;;;;;;;2.40;1.58;;;21.00;99.90;;;;;;5011159;28;20166;-64
2023/07/11 02:39:32;;;;;;;2.33;1.70;;;21.00;99.90;;;;;;5016183;28;20170;-63
2023/07/11 02:41:58;;;;;;;3.00;1.67;;;21.00;99.90;;;;;;5018219;28;20205;-64
2023/07/11 02:44:26;;;;;;;3.35;1.75;;;20.90;99.90;;;;;;5016914;28;20178;-63
2023/07/11 02:46:54;;;;;;;2.00;1.48;;;20.90;99.90;;;;;;5015696;28;20174;-63
2023/07/11 02:49:20;;;;;;;2.40;1.58;;;20.90;99.90;;;;;;5016527;28;20205;-64
2023/07/11 02:51:45;;;;;;;2.25;1.67;;;20.90;99.90;;;;;;5032360;28;20178;-64
2023/07/11 02:54:11;;;;;;;3.65;1.50;;;20.90;99.90;;;;;;5005610;28;20465;-64
2023/07/11 02:56:37;;;;;;;2.70;1.40;;;20.80;99.90;;;;;;5014344;28;20174;-64
2023/07/11 02:59:06;;;;;;;1.63;1.50;;;20.80;99.90;;;;;;5017977;28;20198;-64
2023/07/11 03:01:34;;;;;;;2.10;1.48;;;20.80;99.90;;;;;;5017272;28;20197;-64
2023/07/11 03:04:00;;;;;;;3.95;1.60;;;20.80;99.90;;;;;;5013374;28;20174;-63
2023/07/11 03:06:25;;;;;;;2.25;1.55;;;20.80;99.90;;;;;;5028809;28;20174;-64
2023/07/11 03:08:53;;;;;;;2.10;1.48;;;20.80;99.90;;;;;;5016134;28;20203;-63
2023/07/11 03:11:21;;;;;;;2.00;1.50;;;20.80;99.90;;;;;;5018520;28;20174;-63
2023/07/11 03:13:47;;;;;;;2.28;1.60;;;20.80;99.90;;;;;;5012056;28;20254;-63
2023/07/11 03:16:12;;;;;;;3.53;1.40;;;20.70;99.90;;;;;;5020296;28;20198;-64
2023/07/11 03:18:43;;;;;;;1.77;1.40;;;20.70;99.90;;;;;;5019875;28;20173;-63
2023/07/11 03:21:11;;;;;;;2.28;1.58;;;20.70;99.90;;;;;;5019532;28;20434;-64
2023/07/11 03:23:39;;;;;;;2.40;1.42;;;20.70;99.90;;;;;;5016792;28;20255;-63
2023/07/11 03:26:06;;;;;;;2.33;1.70;;;20.70;99.90;;;;;;5020167;28;20523;-63
2023/07/11 03:28:34;;;;;;;5.00;2.63;;;20.70;99.90;;;;;;5019184;28;20421;-64
2023/07/11 03:31:00;;;;;;;5.97;4.75;;;20.60;99.90;;;;;;5018879;28;20200;-63
2023/07/11 03:33:26;;;;;;;5.43;4.07;;;20.60;99.90;;;;;;5033687;28;20194;-63
2023/07/11 03:35:51;;;;;;;3.63;2.88;;;20.60;99.90;;;;;;5018588;28;20208;-63
2023/07/11 03:38:18;;;;;;;3.13;2.45;;;20.60;99.90;;;;;;5019332;28;20166;-62
2023/07/11 03:40:44;;;;;;;3.53;2.50;;;20.60;99.90;;;;;;5017036;28;20453;-61
2023/07/11 03:43:09;;;;;;;3.90;2.72;;;20.60;99.90;;;;;;5018302;28;20209;-63
2023/07/11 03:45:37;;;;;;;2.50;2.28;;;20.60;99.90;;;;;;5022914;28;20302;-61
2023/07/11 03:48:03;;;;;;;3.03;2.00;;;20.50;99.90;;;;;;5018840;28;20182;-63
2023/07/11 03:50:31;;;;;;;2.20;1.98;;;20.50;99.90;;;;;;5019066;28;20194;-62
2023/07/11 03:52:58;;;;;;;2.63;2.10;;;20.50;99.90;;;;;;5010619;28;20209;-64
2023/07/11 03:55:24;;;;;;;2.22;1.60;;;20.50;99.90;;;;;;5022004;28;20170;-63
2023/07/11 03:57:50;;;;;;;3.03;2.17;;;20.50;99.90;;;;;;5016202;28;20266;-63
2023/07/11 04:00:15;;;;;;;4.72;4.15;;;20.50;99.90;;;;;;5029601;28;20248;-63
2023/07/11 04:02:41;;;;;;;3.47;3.00;;;20.50;99.90;;;;;;5035826;28;20221;-63
2023/07/11 04:05:07;;;;;;;3.20;2.50;;;20.50;99.90;;;;;;5019474;28;20174;-62
2023/07/11 04:07:35;;;;;;;2.80;2.10;;;20.50;99.90;;;;;;5019475;28;20174;-62
2023/07/11 04:10:00;;;;;;;2.42;1.90;;;20.50;99.90;;;;;;5015588;28;20198;-63
2023/07/11 04:12:26;;;;;;;3.08;2.13;;;20.50;99.90;;;;;;5019844;28;20174;-61
2023/07/11 04:14:54;;;;;;;3.83;1.65;;;20.60;99.90;;;;;;5035017;28;20225;-63
2023/07/11 04:17:21;;;;;;;1.98;1.73;;;20.60;99.90;;;;;;5018871;28;20201;-63
2023/07/11 04:19:50;;;;;;;3.17;1.83;;;20.60;99.90;;;;;;5034925;28;20181;-62
2023/07/11 04:22:16;;;;;;;2.55;1.77;;;20.60;99.90;;;;;;5011938;28;20169;-62
2023/07/11 04:24:41;;;;;;;2.38;1.65;;;20.70;99.90;;;;;;5018847;28;20187;-63
2023/07/11 04:27:09;;;;;;;3.22;1.60;;;20.70;99.90;;;;;;5015223;28;20205;-62
2023/07/11 04:29:36;;;;;;;1.88;1.63;;;20.70;99.90;;;;;;5001103;28;20240;-62
2023/07/11 04:32:04;;;;;;;2.15;1.60;;;20.70;99.90;;;;;;5008666;28;20178;-63
2023/07/11 04:34:30;;;;;;;2.63;1.90;;;20.80;99.90;;;;;;5018479;28;20236;-63
2023/07/11 04:36:58;;;;;;;2.85;1.73;;;20.80;99.90;;;;;;5017928;28;20174;-63
2023/07/11 04:39:24;;;;;;;3.25;2.00;;;20.90;99.90;;;;;;5028699;28;20284;-63
2023/07/11 04:41:49;;;;;;;3.00;1.80;;;20.90;99.90;;;;;;5018417;28;20281;-61
2023/07/11 04:44:15;;;;;;;2.90;1.58;;;20.90;99.90;;;;;;5014875;28;20245;-63
2023/07/11 04:46:41;;;;;;;2.03;1.60;;;21.00;99.90;;;;;;5011359;28;20202;-63
2023/07/11 04:49:11;;;;;;;3.10;2.00;;;21.00;99.90;;;;;;5035091;28;20233;-61
2023/07/11 04:51:37;;;;;;;3.78;1.80;;;21.00;99.90;;;;;;5018503;28;20173;-64
2023/07/11 04:54:02;;;;;;;4.72;1.70;;;21.10;99.90;;;;;;5025829;28;20216;-64
2023/07/11 04:56:28;;;;;;;3.08;1.67;;;21.00;99.90;;;;;;5018292;28;20174;-65
2023/07/11 04:58:56;;;;;;;1.95;1.50;;;21.10;99.90;;;;;;5032781;28;20277;-65
2023/07/11 05:01:22;;;;;;;1.90;1.45;;;21.10;99.90;;;;;;5018840;28;20265;-64
2023/07/11 05:03:51;;;;;;;3.17;1.70;;;21.20;99.90;;;;;;5018697;28;20265;-60
2023/07/11 05:06:19;;;;;;;4.95;1.83;;;21.20;99.90;;;;;;4999073;28;20205;-67
2023/07/11 05:08:45;;;;;;;2.30;1.65;;;21.30;99.90;;;;;;5016109;28;20185;-66
2023/07/11 05:11:16;;;;;;;3.38;1.60;;;21.30;99.90;;;;;;5016327;28;20178;-67
2023/07/11 05:13:44;;;;;;;2.35;1.75;;;21.40;99.90;;;;;;5011179;28;20194;-64
2023/07/11 05:16:13;;;;;;;4.88;1.90;;;21.40;99.90;;;;;;5018290;28;20182;-66
2023/07/11 05:18:42;;;;;;;2.40;1.70;;;21.50;99.90;;;;;;5018366;28;20177;-66
2023/07/11 05:21:12;;;;;;;3.05;1.48;;;21.50;99.90;;;;;;5017836;28;20194;-66
2023/07/11 05:23:43;;;;;;;1.83;1.50;;;21.60;99.90;;;;;;5018679;28;20182;-66
2023/07/11 05:26:09;;;;;;;3.42;1.70;;;21.60;99.90;;;;;;5019673;28;20182;-66
2023/07/11 05:28:34;;;;;;;2.78;1.73;;;21.70;99.90;;;;;;5018314;28;20198;-65
2023/07/11 05:31:02;;;;;;;2.90;1.42;;;21.80;99.90;;;;;;5009897;28;20408;-67
2023/07/11 05:33:31;;;;;;;2.58;1.60;;;21.80;99.90;;;;;;5013205;28;20264;-66
2023/07/11 05:36:25;;;;;;;3.58;1.60;;;21.90;99.90;;;;;;5006645;28;20162;-66
2023/07/11 05:38:56;;;;;;;2.80;1.58;;;21.90;99.90;;;;;;5017455;28;20174;-66
2023/07/11 05:41:22;;;;;;;4.03;1.70;;;22.00;99.90;;;;;;5018051;28;20189;-66
2023/07/11 05:43:48;;;;;;;2.22;1.70;;;22.00;99.90;;;;;;5014718;28;20186;-64
2023/07/11 05:46:16;;;;;;;2.67;1.70;;;22.10;99.90;;;;;;5032179;28;20221;-66
2023/07/11 05:48:42;;;;;;;3.80;1.90;;;22.20;99.90;;;;;;5023965;28;20225;-66
2023/07/11 05:51:12;;;;;;;2.55;1.50;;;22.20;99.90;;;;;;5034247;28;20206;-66
2023/07/11 05:53:40;;;;;;;2.38;1.50;;;22.30;99.90;;;;;;5003827;28;20497;-66
2023/07/11 05:56:06;;;;;;;2.80;1.67;;;22.30;99.90;;;;;;5006867;28;20182;-66
2023/07/11 05:58:34;;;;;;;3.55;1.80;;;22.40;99.90;;;;;;5033807;28;20204;-66
2023/07/11 06:01:00;;;;;;;2.58;1.58;;;22.40;99.90;;;;;;5016551;28;20222;-66
2023/07/11 06:03:32;;;;;;;3.70;1.98;;;22.40;99.90;;;;;;5023511;28;20258;-66
2023/07/11 06:06:03;;;;;;;1.88;1.50;;;22.50;99.90;;;;;;5011865;28;20174;-66
2023/07/11 06:08:35;;;;;;;2.83;1.75;;;22.50;99.90;;;;;;5017434;28;20217;-66
2023/07/11 06:11:03;;;;;;;2.25;1.60;;;22.60;99.90;;;;;;5017274;28;20182;-66
2023/07/11 06:13:30;;;;;;;2.28;1.80;;;22.60;99.90;;;;;;5014110;28;20258;-66
2023/07/11 06:16:02;;;;;;;2.65;1.60;;;22.60;99.90;;;;;;5009013;28;20228;-66
2023/07/11 06:18:34;;;;;;;4.20;1.80;;;22.70;99.90;;;;;;5017275;28;20189;-67
2023/07/11 06:21:05;;;;;;;3.10;1.70;;;22.70;99.90;;;;;;5017459;28;20228;-66
2023/07/11 06:23:33;;;;;;;3.33;1.50;;;22.80;99.90;;;;;;5016862;28;20291;-66
2023/07/11 06:25:59;;;;;;;2.70;1.60;;;22.80;99.90;;;;;;5028476;28;20173;-68
2023/07/11 06:28:27;;;;;;;2.97;2.00;;;22.90;99.90;;;;;;5017254;28;20224;-66
2023/07/11 06:31:00;;;;;;;2.70;1.90;;;22.90;99.90;;;;;;5023231;28;20246;-66
2023/07/11 06:33:27;;;;;;;2.65;1.60;;;23.00;99.90;;;;;;5019772;28;20298;-67
2023/07/11 06:35:53;;;;;;;2.58;1.90;;;23.00;99.90;;;;;;5036625;28;20166;-66
2023/07/11 06:38:19;;;;;;;2.53;1.38;;;23.10;99.90;;;;;;5024626;28;20340;-67
2023/07/11 06:40:50;;;;;;;2.20;1.98;;;23.20;99.90;;;;;;5021136;28;20442;-66
2023/07/11 06:43:22;;;;;;;2.13;1.60;;;23.20;99.90;;;;;;5021460;28;20202;-67
2023/07/11 06:45:51;;;;;;;2.28;1.67;;;23.30;99.90;;;;;;5038070;28;20308;-67
2023/07/11 06:48:22;;;;;;;3.45;1.90;;;23.40;99.90;;;;;;5026218;28;20210;-65
2023/07/11 06:50:59;;;;;;;2.42;1.67;;;23.50;99.90;;;;;;5015308;28;20221;-67
2023/07/11 06:53:30;;;;;;;2.45;1.85;;;23.60;99.90;;;;;;5021474;28;20208;-64
2023/07/11 06:55:56;;;;;;;2.28;1.80;;;23.60;99.90;;;;;;5037320;28;20201;-64
2023/07/11 06:58:22;;;;;;;2.45;1.58;;;23.70;99.90;;;;;;5021778;28;20216;-65
2023/07/11 07:01:01;;;;;;;2.20;1.45;;;23.70;99.90;;;;;;5017809;28;20171;-65
2023/07/11 07:03:27;;;;;;;2.80;1.60;;;23.90;99.90;;;;;;5033265;28;20181;-66
2023/07/11 07:06:07;;;;;;;2.95;1.77;;;23.90;99.90;;;;;;5019035;28;20213;-65
2023/07/11 07:08:35;;;;;;;2.90;1.80;;;24.00;99.90;;;;;;5020105;28;20177;-65
2023/07/11 07:11:01;;;;;;;2.53;1.80;;;24.10;99.90;;;;;;5020623;28;20181;-66
2023/07/11 07:13:29;;;;;;;2.38;1.88;;;24.20;99.90;;;;;;5020562;28;20205;-65
2023/07/11 07:15:58;;;;;;;3.75;1.90;;;24.30;99.90;;;;;;5018770;28;20236;-66
2023/07/11 07:18:30;;;;;;;2.88;1.80;;;24.40;99.90;;;;;;5020606;28;20202;-65
2023/07/11 07:20:56;;;;;;;3.28;1.70;;;24.50;99.90;;;;;;5020389;28;20190;-65
2023/07/11 07:23:22;;;;;;;2.65;1.63;;;24.50;99.90;;;;;;5019925;28;20235;-65
2023/07/11 07:26:01;;;;;;;2.45;1.52;;;24.60;99.90;;;;;;5036577;28;20186;-65
2023/07/11 07:28:31;;;;;;;3.83;1.88;;;24.70;99.90;;;;;;5036344;28;20208;-65
2023/07/11 07:30:58;;;;;;;2.20;1.70;;;24.80;99.90;;;;;;5023734;28;20189;-65
2023/07/11 07:33:27;;;;;;;3.38;1.45;;;24.90;99.90;;;;;;5020099;28;20202;-65
2023/07/11 07:36:01;;;;;;;1.95;1.67;;;25.00;99.90;;;;;;5019654;28;20194;-65
2023/07/11 07:38:32;;;;;;;3.65;1.88;;;25.10;99.90;;;;;;5020373;28;20170;-65
2023/07/11 07:41:01;;;;;;;2.65;1.60;;;25.10;99.90;;;;;;5012681;28;20189;-65
2023/07/11 07:43:28;;;;;;;2.35;1.95;;;25.20;99.90;;;;;;5036200;28;20213;-65
2023/07/11 07:45:55;;;;;;;2.53;1.83;;;25.30;99.90;;;;;;5019576;28;20221;-65
2023/07/11 07:48:24;;;;;;;2.30;1.60;;;25.40;99.90;;;;;;5019399;28;20178;-65
2023/07/11 07:50:50;;;;;;;4.22;1.88;;;25.50;99.90;;;;;;5034396;28;20192;-66
2023/07/11 07:53:17;;;;;;;3.63;1.88;;;25.60;99.90;;;;;;5019924;28;20201;-65
2023/07/11 07:55:43;;;;;;;2.13;1.60;;;25.60;99.90;;;;;;5019249;28;20175;-65
2023/07/11 07:58:10;;;;;;;1.85;1.65;;;25.70;99.90;;;;;;5016458;28;20205;-65
2023/07/11 08:00:36;;;;;;;2.28;1.60;;;25.70;99.90;;;;;;5019748;28;20198;-65
2023/07/11 08:03:02;;;;;;;3.58;1.90;;;25.90;99.90;;;;;;5006467;28;20182;-65
2023/07/11 08:05:29;;;;;;;2.97;1.80;;;26.00;99.90;;;;;;5017233;28;20186;-66
2023/07/11 08:07:55;;;;;;;3.13;2.08;;;26.00;99.90;;;;;;5034619;28;20190;-65
2023/07/11 08:10:20;;;;;;;3.17;1.75;;;26.10;99.90;;;;;;5019537;28;20209;-65
2023/07/11 08:12:46;;;;;;;2.38;1.73;;;26.20;99.90;;;;;;5019117;28;20178;-65
2023/07/11 08:15:12;;;;;;;2.55;1.90;;;26.30;99.90;;;;;;5019349;28;20189;-66
2023/07/11 08:17:38;;;;;;;1.58;1.48;;;26.40;99.90;;;;;;5019685;28;20193;-65
2023/07/11 08:20:07;;;;;;;2.10;1.80;;;26.50;99.90;;;;;;5010777;28;20264;-66
2023/07/11 08:22:32;;;;;;;3.40;2.03;;;26.60;99.90;;;;;;4999811;28;20171;-65
2023/07/11 08:25:00;;;;;;;2.10;1.88;;;26.70;99.90;;;;;;5029887;28;20194;-66
2023/07/11 08:27:28;;;;;;;2.85;2.00;;;26.90;99.90;;;;;;5011090;28;20186;-66
2023/07/11 08:29:54;;;;;;;3.38;1.75;;;27.00;99.90;;;;;;5019522;28;20174;-66
2023/07/11 08:32:19;;;;;;;2.33;1.80;;;27.10;99.90;;;;;;5035939;28;20252;-66
2023/07/11 08:34:45;;;;;;;5.03;2.00;;;27.20;99.90;;;;;;5011830;28;20199;-66
2023/07/11 08:37:12;;;;;;;2.15;1.77;;;27.20;99.90;;;;;;5035540;28;20178;-66
2023/07/11 08:39:40;;;;;;;3.78;1.70;;;27.30;99.90;;;;;;5019031;28;20212;-66
2023/07/11 08:42:23;;;;;;;2.88;1.73;;;27.40;99.90;;;;;;5018819;28;20201;-66
2023/07/11 08:44:58;;;;;;;3.83;2.00;;;27.50;99.90;;;;;;5019062;28;20185;-66
2023/07/11 08:47:30;;;;;;;5.80;2.17;;;27.60;99.90;;;;;;5018242;28;20221;-65
2023/07/11 08:50:17;;;;;;;2.90;2.10;;;27.70;99.90;;;;;;5024831;28;20185;-66
2023/07/11 08:52:44;;;;;;;2.40;1.80;;;27.80;99.90;;;;;;5018610;28;20189;-65
2023/07/11 08:55:17;;;;;;;2.90;1.92;;;27.90;99.90;;;;;;5007376;28;20202;-65
2023/07/11 08:57:52;;;;;;;2.08;1.75;;;28.00;99.90;;;;;;5026393;28;20183;-66
2023/07/11 09:00:19;;;;;;;2.17;1.80;;;28.10;99.90;;;;;;5018698;28;20260;-66
2023/07/11 09:02:55;;;;;;;3.38;2.03;;;28.20;99.90;;;;;;5030124;28;20166;-65
2023/07/11 09:05:47;;;;;;;2.88;2.10;;;28.30;99.90;;;;;;5015284;28;20182;-66
2023/07/11 09:08:18;;;;;;;2.28;1.70;;;28.40;99.90;;;;;;5036177;28;20155;-65
2023/07/11 09:11:20;;;;;;;4.03;2.00;;;28.40;99.90;;;;;;5028238;28;20174;-67
2023/07/11 09:13:57;;;;;;;2.35;2.03;;;28.50;99.70;;;;;;5035197;28;20197;-65
2023/07/11 09:16:41;;;;;;;3.15;2.30;;;28.60;99.20;;;;;;5017641;28;20272;-65
2023/07/11 09:19:51;;;;;;;2.85;2.30;;;28.70;99.00;;;;;;5017729;28;20300;-66
2023/07/11 09:22:53;;;;;;;3.65;1.95;;;28.80;98.60;;;;;;4942201;28;20164;-66
2023/07/11 09:25:29;;;;;;;2.28;1.90;;;28.90;98.50;;;;;;4957215;28;20183;-66
2023/07/11 09:28:03;;;;;;;3.58;1.92;;;28.90;98.10;;;;;;4997199;28;20198;-65
2023/07/11 09:30:37;;;;;;;2.58;1.80;;;28.90;97.60;;;;;;4998660;28;20208;-65
2023/07/11 09:33:23;;;;;;;4.20;1.98;;;29.00;97.10;;;;;;5005446;28;20185;-66
2023/07/11 09:35:53;;;;;;;4.32;2.42;;;29.10;95.70;;;;;;5034367;28;20259;-65
2023/07/11 09:38:40;;;;;;;3.92;2.00;;;29.20;96.50;;;;;;5018053;28;20186;-65
2023/07/11 09:41:15;;;;;;;3.20;2.10;;;29.20;95.60;;;;;;5017823;28;20200;-65
2023/07/11 09:43:41;;;;;;;3.50;2.30;;;29.30;95.60;;;;;;5017956;28;20268;-64
2023/07/11 09:46:16;;;;;;;2.72;2.22;;;29.30;94.90;;;;;;5018133;28;20253;-65
2023/07/11 09:48:44;;;;;;;2.88;2.10;;;29.40;94.30;;;;;;5017051;28;20196;-66
2023/07/11 09:51:37;;;;;;;3.25;2.33;;;29.50;94.30;;;;;;5026404;28;20190;-65
2023/07/11 09:54:20;;;;;;;3.22;2.47;;;29.50;92.80;;;;;;5017430;28;20197;-66
2023/07/11 09:56:50;;;;;;;3.83;2.40;;;29.60;92.40;;;;;;5017348;28;20193;-66
2023/07/11 09:59:17;;;;;;;4.18;2.70;;;29.70;93.00;;;;;;5014020;28;20184;-67
2023/07/11 10:01:43;;;;;;;2.72;2.30;;;29.70;93.20;;;;;;5010289;28;20201;-66
2023/07/11 10:04:15;;;;;;;2.50;2.10;;;29.90;93.10;;;;;;5020471;28;20197;-66
2023/07/11 10:06:53;;;;;;;3.67;2.30;;;30.00;92.40;;;;;;5017804;28;20271;-67
2023/07/11 10:09:29;;;;;;;2.90;2.38;;;30.00;92.70;;;;;;5027787;28;20201;-66
2023/07/11 10:12:03;;;;;;;3.55;2.40;;;30.20;92.00;;;;;;5014713;28;20267;-66
2023/07/11 10:14:43;;;;;;;3.95;2.20;;;30.20;92.20;;;;;;5018081;28;20250;-66
2023/07/11 10:17:26;;;;;;;3.50;2.28;;;30.30;91.80;;;;;;5018133;28;20173;-66
2023/07/11 10:20:00;;;;;;;4.00;2.80;;;30.40;91.50;;;;;;5017505;28;20205;-66
2023/07/11 10:22:29;;;;;;;3.88;2.97;;;30.50;90.50;;;;;;5017637;28;20170;-66
2023/07/11 10:25:21;;;;;;;3.75;2.80;;;30.50;89.80;;;;;;5017356;28;20188;-65
2023/07/11 10:28:08;;;;;;;4.47;2.65;;;30.60;88.00;;;;;;5017021;28;20173;-66
2023/07/11 10:30:39;;;;;;;4.35;3.00;;;30.70;86.80;;;;;;5017214;28;20181;-67
2023/07/11 10:33:08;;;;;;;3.10;2.72;;;30.70;87.90;;;;;;5022273;28;20174;-67
2023/07/11 10:35:37;;;;;;;3.13;2.40;;;30.70;87.50;;;;;;5033740;28;20204;-66
2023/07/11 10:38:08;;;;;;;4.13;2.70;;;30.80;88.20;;;;;;5017166;28;20177;-67
2023/07/11 10:40:43;;;;;;;3.90;2.63;;;30.90;87.10;;;;;;5017393;28;20253;-67
2023/07/11 10:43:35;;;;;;;3.13;2.67;;;31.10;86.90;;;;;;5016875;28;20187;-65
2023/07/11 10:46:14;;;;;;;2.83;2.33;;;31.20;86.60;;;;;;5014020;28;20232;-66
2023/07/11 10:48:45;;;;;;;3.38;2.85;;;31.50;86.80;;;;;;5016890;28;20307;-66
2023/07/11 10:51:30;;;;;;;2.75;2.47;;;31.70;86.20;;;;;;5013990;28;20167;-66
2023/07/11 10:54:03;;;;;;;2.58;2.25;;;31.90;85.90;;;;;;5025578;28;20201;-66
2023/07/11 10:56:42;;;;;;;3.25;2.53;;;32.00;86.20;;;;;;5012112;28;20198;-66
2023/07/11 10:59:14;;;;;;;4.03;2.75;;;32.30;84.70;;;;;;4999126;28;20173;-66
2023/07/11 11:01:40;;;;;;;3.38;2.40;;;32.50;82.80;;;;;;5016930;28;20170;-67
2023/07/11 11:04:05;;;;;;;2.83;2.40;;;32.50;83.80;;;;;;5017193;28;20197;-66
2023/07/11 11:06:53;;;;;;;3.78;2.72;;;32.70;82.50;;;;;;5016406;28;20181;-67
2023/07/11 11:09:35;;;;;;;3.58;2.80;;;32.80;79.00;;;;;;5033109;28;20161;-67
2023/07/11 11:12:10;;;;;;;4.10;3.00;;;32.90;78.20;;;;;;5016635;28;20288;-67
2023/07/11 11:15:08;;;;;;;4.07;3.15;;;33.00;76.50;;;;;;5008791;28;20351;-66
2023/07/11 11:18:05;;;;;;;4.68;3.22;;;33.10;74.00;;;;;;5026391;28;20192;-66
2023/07/11 11:20:58;;;;;;;3.20;2.90;;;33.20;73.80;;;;;;4985063;28;20181;-67
2023/07/11 11:23:49;;;;;;;3.65;2.92;;;33.20;73.50;;;;;;5019676;28;20280;-66
2023/07/11 11:26:15;;;;;;;3.65;2.75;;;33.40;71.20;;;;;;5017368;28;20217;-66
2023/07/11 11:28:53;;;;;;;3.80;3.13;;;33.40;71.10;;;;;;5014791;28;20174;-66
2023/07/11 11:31:19;;;;;;;4.22;2.97;;;33.50;69.40;;;;;;5032537;28;20216;-66
2023/07/11 11:33:56;;;;;;;2.95;2.65;;;33.50;70.30;;;;;;5019685;28;20247;-66
2023/07/11 11:36:29;;;;;;;3.85;2.90;;;33.60;69.10;;;;;;5027605;28;20188;-67
2023/07/11 11:39:44;;;;;;;3.13;2.78;;;33.70;66.60;;;;;;5019809;28;20219;-66
2023/07/11 11:42:26;;;;;;;3.40;3.10;;;34.00;69.10;;;;;;4994407;28;20230;-67
2023/07/11 11:45:10;;;;;;;3.85;3.25;;;34.10;66.10;;;;;;5019655;28;20204;-67
2023/07/11 11:47:36;;;;;;;4.30;3.58;;;34.20;65.90;;;;;;5019208;28;20233;-67
2023/07/11 11:50:03;;;;;;;3.80;3.50;;;34.30;65.20;;;;;;5019558;28;20189;-66
2023/07/11 11:52:33;;;;;;;4.25;3.40;;;34.30;64.60;;;;;;5036519;28;20181;-67
2023/07/11 11:55:23;;;;;;;4.00;3.28;;;34.30;62.90;;;;;;5019844;28;20309;-66
2023/07/11 11:57:52;;;;;;;5.55;3.78;;;34.40;61.80;;;;;;5000375;28;20196;-67
2023/07/11 12:00:42;;;;;;;4.72;3.90;;;34.50;62.20;;;;;;5019010;28;20188;-67
2023/07/11 12:03:27;;;;;;;5.43;4.20;;;34.50;59.60;;;;;;5019820;28;20257;-67
2023/07/11 12:05:58;;;;;;;5.40;4.43;;;34.60;57.60;;;;;;5019616;28;20227;-67
2023/07/11 12:08:39;;;;;;;5.47;4.43;;;34.50;58.30;;;;;;5019525;28;20315;-68
2023/07/11 12:11:07;;;;;;;4.30;3.80;;;34.60;57.90;;;;;;5036099;28;20216;-67
2023/07/11 12:13:46;;;;;;;5.95;4.07;;;34.60;58.20;;;;;;5036415;28;20201;-67
2023/07/11 12:16:22;;;;;;;5.00;4.50;;;34.70;58.70;;;;;;5036155;28;20169;-67
2023/07/11 12:19:29;;;;;;;4.88;4.43;;;34.90;55.10;;;;;;5033442;28;20189;-67
2023/07/11 12:22:05;;;;;;;7.25;5.60;;;35.00;55.60;;;;;;5024941;28;20250;-67
2023/07/11 12:24:33;;;;;;;6.30;5.68;;;35.00;54.60;;;;;;5019407;28;20204;-67
2023/07/11 12:27:28;;;;;;;5.75;4.85;;;35.00;55.00;;;;;;5019176;28;20239;-67
2023/07/11 12:29:55;;;;;;;5.25;4.75;;;35.10;54.70;;;;;;5010189;28;20200;-67
2023/07/11 12:32:33;;;;;;;5.70;4.63;;;35.10;54.70;;;;;;5018967;28;20205;-67
2023/07/11 12:35:04;;;;;;;6.03;4.75;;;35.20;54.30;;;;;;5019346;28;20280;-67
2023/07/11 12:37:56;;;;;;;5.78;4.93;;;35.20;53.80;;;;;;5018604;28;20173;-67
2023/07/11 12:40:32;;;;;;;6.53;4.93;;;35.20;54.10;;;;;;5014928;28;20205;-67
2023/07/11 12:43:00;;;;;;;8.02;4.75;;;35.30;54.40;;;;;;5030147;28;20269;-65
2023/07/11 12:45:37;;;;;;;5.68;5.07;;;35.40;53.80;;;;;;5018978;28;20387;-67
2023/07/11 12:48:16;;;;;;;5.40;4.85;;;35.50;53.50;;;;;;5018806;28;20184;-67
2023/07/11 12:50:46;;;;;;;5.55;4.78;;;35.50;52.90;;;;;;5018802;28;20191;-67
2023/07/11 12:53:13;;;;;;;6.22;4.45;;;35.60;53.60;;;;;;5021711;28;20253;-67
2023/07/11 12:55:45;;;;;;;5.35;4.85;;;35.70;53.50;;;;;;5018637;28;20177;-68
2023/07/11 12:58:22;;;;;;;5.38;4.63;;;35.70;52.50;;;;;;5018358;28;20186;-67
2023/07/11 13:00:49;;;;;;;6.07;4.38;;;35.80;51.80;;;;;;5029177;28;20207;-67
2023/07/11 13:03:28;;;;;;;5.47;4.90;;;35.80;52.60;;;;;;5027019;28;20178;-67
2023/07/11 13:06:03;;;;;;;5.50;4.63;;;35.90;51.90;;;;;;5018300;28;20180;-67
2023/07/11 13:08:38;;;;;;;5.30;4.15;;;35.90;51.60;;;;;;5017143;28;20196;-67